Terminal Aerodrome Forecast
Issued by NWS

Home | Current Version | Previous Version | Text Only | Print | Product List | Glossary On
Versions: 1 2 3 4 5 6 7 8 9 10 11 12 13 14 15 16 17 18
000
FTUS42 KFFC 230521
TAFRYY
TAF
KRYY 230521Z 2306/2406 VRB03KT P6SM VCSH BKN045
     FM231000 21003KT 6SM SHRA BKN015
      TEMPO 2315/2319 3SM TSRA BR BKN008CB
     FM231900 25006KT 3SM -SHRA BR BKN012
     FM232300 30004KT P6SM VCSH BKN012
     FM240300 30004KT 5SM -DZ BR OVC008
      AMD NOT SKED TIL 231200=

USA.gov is the U.S. government's official web portal to all federal, state and local government web resources and services.